createdAt,value
2018-08-22T00:01:46.843Z,8.80
2018-08-22T00:04:15.162Z,9.03
2018-08-22T00:06:43.465Z,10.33
2018-08-22T00:09:11.789Z,9.87
2018-08-22T00:11:40.113Z,9.43
2018-08-22T00:14:08.494Z,10.43
2018-08-22T00:16:36.833Z,9.43
2018-08-22T00:19:05.213Z,9.43
2018-08-22T00:21:33.592Z,11.30
2018-08-22T00:24:02.173Z,8.60
2018-08-22T00:26:30.510Z,9.37
2018-08-22T00:28:58.920Z,8.30
2018-08-22T00:31:27.186Z,9.20
2018-08-22T00:33:55.562Z,9.53
2018-08-22T00:36:23.870Z,10.00
2018-08-22T00:38:52.205Z,8.67
2018-08-22T00:41:20.508Z,8.57
2018-08-22T00:43:48.833Z,9.90
2018-08-22T00:46:17.141Z,10.10
2018-08-22T00:48:45.493Z,9.60
2018-08-22T00:51:13.798Z,10.10
2018-08-22T00:53:42.144Z,11.77
2018-08-22T00:56:10.477Z,10.63
2018-08-22T00:58:38.834Z,10.23
2018-08-22T01:01:07.145Z,9.17
2018-08-22T01:03:35.505Z,10.40
2018-08-22T01:06:03.826Z,10.30
2018-08-22T01:08:32.217Z,10.83
2018-08-22T01:11:00.557Z,8.33
2018-08-22T01:13:28.905Z,9.77
2018-08-22T01:15:57.227Z,10.47
2018-08-22T01:18:25.564Z,10.27
2018-08-22T01:20:53.886Z,13.13
2018-08-22T01:23:22.258Z,10.87
2018-08-22T01:25:50.606Z,11.07
2018-08-22T01:28:18.957Z,9.40
2018-08-22T01:30:47.268Z,10.47
2018-08-22T01:33:15.608Z,10.13
2018-08-22T01:35:43.942Z,10.87
2018-08-22T01:38:12.240Z,9.50
2018-08-22T01:40:40.593Z,9.93
2018-08-22T01:43:08.910Z,9.17
2018-08-22T01:45:37.293Z,9.77
2018-08-22T01:48:05.659Z,10.47
2018-08-22T01:50:33.989Z,9.87
2018-08-22T01:53:02.330Z,11.17
2018-08-22T01:55:30.664Z,12.20
2018-08-22T01:57:58.977Z,11.07
2018-08-22T02:00:27.357Z,10.90
2018-08-22T02:02:55.662Z,10.53
2018-08-22T02:05:24.017Z,10.30
2018-08-22T02:07:52.337Z,10.80
2018-08-22T02:10:20.728Z,10.00
2018-08-22T02:12:49.017Z,10.43
2018-08-22T02:15:17.356Z,10.77
2018-08-22T02:17:45.661Z,11.27
2018-08-22T02:20:14.002Z,11.80
2018-08-22T02:22:42.322Z,11.30
2018-08-22T02:25:10.699Z,10.30
2018-08-22T02:27:39.018Z,11.83
2018-08-22T02:30:07.358Z,12.43
2018-08-22T02:32:35.682Z,10.77
2018-08-22T02:35:04.045Z,11.23
2018-08-22T02:37:32.354Z,10.80
2018-08-22T02:40:00.717Z,11.33
2018-08-22T02:42:29.040Z,12.57
2018-08-22T02:44:57.409Z,14.87
2018-08-22T02:47:25.738Z,11.37
2018-08-22T02:49:54.086Z,12.20
2018-08-22T02:52:22.479Z,12.03
2018-08-22T02:54:50.810Z,14.57
2018-08-22T02:57:19.151Z,11.83
2018-08-22T02:59:47.500Z,12.27
2018-08-22T03:02:15.817Z,13.53
2018-08-22T03:04:44.162Z,12.70
2018-08-22T03:07:12.491Z,12.20
2018-08-22T03:09:40.858Z,14.50
2018-08-22T03:12:09.225Z,12.60
2018-08-22T03:14:37.590Z,13.13
2018-08-22T03:17:05.961Z,13.03
2018-08-22T03:19:34.323Z,12.87
2018-08-22T03:22:02.641Z,12.87
2018-08-22T03:24:30.990Z,13.80
2018-08-22T03:26:59.334Z,13.37
2018-08-22T03:29:27.698Z,12.37
2018-08-22T03:31:56.031Z,12.53
2018-08-22T03:34:24.365Z,11.67
2018-08-22T03:36:52.710Z,13.77
2018-08-22T03:39:21.061Z,13.07
2018-08-22T03:41:49.402Z,15.77
2018-08-22T03:44:17.726Z,12.60
2018-08-22T03:46:46.058Z,14.70
2018-08-22T03:49:14.386Z,12.83
2018-08-22T03:51:42.729Z,13.40
2018-08-22T03:54:11.159Z,13.83
2018-08-22T03:56:39.545Z,13.30
2018-08-22T03:59:07.857Z,11.87
2018-08-22T04:01:36.206Z,12.53
2018-08-22T04:04:04.526Z,12.83
2018-08-22T04:06:32.955Z,13.33
2018-08-22T04:09:01.270Z,14.60
2018-08-22T04:11:29.607Z,17.63
2018-08-22T04:13:57.933Z,13.33
2018-08-22T04:16:26.277Z,13.50
2018-08-22T04:18:54.598Z,12.30
2018-08-22T04:21:22.950Z,14.83
2018-08-22T04:23:51.293Z,13.47
2018-08-22T04:26:19.659Z,13.87
2018-08-22T04:28:47.978Z,12.57
2018-08-22T04:31:16.325Z,14.57
2018-08-22T04:33:44.665Z,12.77
2018-08-22T04:36:13.035Z,14.97
2018-08-22T04:38:41.375Z,13.67
2018-08-22T04:41:09.729Z,15.53
2018-08-22T04:43:38.134Z,15.17
2018-08-22T04:46:06.485Z,14.67
2018-08-22T04:48:34.831Z,15.17
2018-08-22T04:51:03.187Z,14.23
2018-08-22T04:53:31.513Z,16.77
2018-08-22T04:55:59.857Z,14.57
2018-08-22T04:58:28.189Z,15.63
2018-08-22T05:00:56.541Z,14.47
2018-08-22T05:03:24.877Z,13.23
2018-08-22T05:05:53.267Z,13.47
2018-08-22T05:08:21.589Z,13.97
2018-08-22T05:10:49.924Z,17.20
2018-08-22T05:13:18.258Z,22.73
2018-08-22T05:15:46.603Z,15.00
2018-08-22T05:18:14.973Z,15.57
2018-08-22T05:20:43.308Z,13.03
2018-08-22T05:23:11.659Z,15.37
2018-08-22T05:25:40.003Z,17.03
2018-08-22T05:28:08.342Z,13.23
2018-08-22T05:30:36.684Z,14.00
2018-08-22T05:33:05.066Z,10.87
2018-08-22T05:35:33.383Z,13.37
2018-08-22T05:38:01.718Z,13.10
2018-08-22T05:40:30.054Z,11.87
2018-08-22T05:42:58.482Z,11.00
2018-08-22T05:45:26.814Z,12.27
2018-08-22T05:47:55.150Z,13.40
2018-08-22T05:50:23.477Z,11.77
2018-08-22T05:52:51.847Z,11.50
2018-08-22T05:55:20.928Z,11.83
2018-08-22T05:57:49.270Z,14.47
2018-08-22T06:00:17.595Z,11.77
2018-08-22T06:02:45.982Z,12.77
2018-08-22T06:05:14.316Z,11.80
2018-08-22T06:07:42.665Z,13.40
2018-08-22T06:10:10.987Z,12.33
2018-08-22T06:12:39.348Z,13.63
2018-08-22T06:15:07.701Z,12.63
2018-08-22T06:17:36.048Z,12.10
2018-08-22T06:20:04.766Z,11.53
2018-08-22T06:22:33.128Z,12.30
2018-08-22T06:25:01.442Z,11.17
2018-08-22T06:27:29.806Z,11.90
2018-08-22T06:29:58.218Z,12.03
2018-08-22T06:32:26.698Z,11.57
2018-08-22T06:34:55.054Z,12.30
2018-08-22T06:37:23.408Z,11.77
2018-08-22T06:39:51.735Z,12.83
2018-08-22T06:42:20.115Z,11.17
2018-08-22T06:44:49.526Z,11.10
2018-08-22T06:47:17.871Z,11.57
2018-08-22T06:49:46.185Z,12.30
2018-08-22T06:52:14.634Z,12.23
2018-08-22T06:54:42.953Z,13.00
2018-08-22T06:57:11.381Z,10.93
2018-08-22T06:59:39.653Z,10.67
2018-08-22T07:02:08.017Z,10.93
2018-08-22T07:04:36.385Z,10.50
2018-08-22T07:07:04.985Z,10.53
2018-08-22T07:09:33.370Z,10.60
2018-08-22T07:12:01.690Z,9.90
2018-08-22T07:14:30.035Z,12.63
2018-08-22T07:16:58.386Z,9.20
2018-08-22T07:19:26.734Z,12.20
2018-08-22T07:21:55.078Z,9.47
2018-08-22T07:24:23.438Z,9.50
2018-08-22T07:26:51.793Z,9.43
2018-08-22T07:29:20.146Z,9.07
2018-08-22T07:31:48.486Z,10.03
2018-08-22T07:34:16.826Z,11.60
2018-08-22T07:36:45.149Z,8.47
2018-08-22T07:39:13.962Z,10.17
2018-08-22T07:41:42.298Z,9.23
2018-08-22T07:44:11.218Z,8.90
2018-08-22T07:46:39.534Z,8.73
2018-08-22T07:49:08.300Z,8.50
2018-08-22T07:51:36.687Z,9.00
2018-08-22T07:54:05.076Z,10.60
2018-08-22T07:56:33.385Z,8.90
2018-08-22T07:59:10.262Z,10.00
2018-08-22T08:01:39.223Z,8.57
2018-08-22T08:04:08.839Z,8.90
2018-08-22T08:06:37.203Z,10.43
2018-08-22T08:09:08.624Z,8.40
2018-08-22T08:11:36.954Z,8.10
2018-08-22T08:14:05.323Z,8.30
2018-08-22T08:16:33.697Z,7.83
2018-08-22T08:19:02.056Z,8.23
2018-08-22T08:21:30.395Z,8.20
2018-08-22T08:23:59.196Z,7.80
2018-08-22T08:26:27.617Z,7.80
2018-08-22T08:28:55.988Z,8.17
2018-08-22T08:31:24.310Z,7.90
2018-08-22T08:33:52.651Z,8.23
2018-08-22T08:36:20.990Z,8.57
2018-08-22T08:38:49.349Z,7.30
2018-08-22T08:41:17.678Z,7.27
2018-08-22T08:43:46.040Z,7.20
2018-08-22T08:46:14.420Z,7.90
2018-08-22T08:48:42.811Z,7.93
2018-08-22T08:51:11.122Z,7.53
2018-08-22T08:53:39.465Z,8.70
2018-08-22T08:56:07.818Z,7.80
2018-08-22T08:58:36.162Z,8.73
2018-08-22T09:01:04.508Z,8.17
2018-08-22T09:03:32.835Z,7.63
2018-08-22T09:06:01.198Z,8.50
2018-08-22T09:08:29.513Z,7.47
2018-08-22T09:10:57.906Z,8.13
2018-08-22T09:13:26.249Z,9.90
2018-08-22T09:15:54.594Z,8.13
2018-08-22T09:18:22.922Z,7.10
2018-08-22T09:20:51.294Z,7.27
2018-08-22T09:23:20.575Z,7.47
2018-08-22T09:25:48.928Z,7.67
2018-08-22T09:28:17.264Z,7.97
2018-08-22T09:30:45.626Z,7.23
2018-08-22T09:33:14.035Z,7.07
2018-08-22T09:35:42.379Z,7.27
2018-08-22T09:38:10.727Z,7.00
2018-08-22T09:40:39.126Z,7.00
2018-08-22T09:43:07.448Z,7.40
2018-08-22T09:45:35.793Z,6.60
2018-08-22T09:48:04.408Z,8.30
2018-08-22T09:50:32.782Z,7.70
2018-08-22T09:53:01.110Z,10.43
2018-08-22T09:55:29.457Z,7.20
2018-08-22T09:57:57.818Z,6.80
2018-08-22T10:00:31.603Z,6.37
2018-08-22T10:02:59.926Z,6.77
2018-08-22T10:05:28.324Z,6.87
2018-08-22T10:07:56.645Z,6.67
2018-08-22T10:10:25.015Z,6.40
2018-08-22T10:12:53.332Z,6.50
2018-08-22T10:15:21.674Z,6.83
2018-08-22T10:17:49.994Z,6.53
2018-08-22T10:20:18.397Z,6.30
2018-08-22T10:22:46.715Z,5.60
2018-08-22T10:25:15.062Z,6.30
2018-08-22T10:27:43.378Z,5.87
2018-08-22T10:30:11.872Z,6.27
2018-08-22T10:32:40.230Z,6.17
2018-08-22T10:35:08.627Z,7.60
2018-08-22T10:37:36.991Z,6.20
2018-08-22T10:40:05.381Z,5.57
2018-08-22T10:42:33.723Z,6.93
2018-08-22T10:45:02.062Z,5.70
2018-08-22T10:47:30.384Z,5.33
2018-08-22T10:49:58.831Z,5.10
2018-08-22T10:52:27.166Z,4.57
2018-08-22T10:54:55.713Z,4.53
2018-08-22T10:57:24.769Z,5.03
2018-08-22T10:59:53.094Z,4.67
2018-08-22T11:02:22.623Z,5.47
2018-08-22T11:04:50.959Z,4.10
2018-08-22T11:07:19.292Z,5.17
2018-08-22T11:09:47.660Z,6.00
2018-08-22T11:12:16.004Z,5.92
2018-08-22T11:14:44.332Z,6.30
2018-08-22T11:17:12.726Z,5.37
2018-08-22T11:19:41.049Z,5.40
2018-08-22T11:22:20.813Z,5.05
2018-08-22T11:25:00.343Z,5.17
2018-08-22T11:27:39.870Z,5.30
2018-08-22T11:30:20.232Z,5.40
2018-08-22T11:32:59.881Z,5.03
2018-08-22T11:35:27.519Z,5.90
2018-08-22T11:37:55.916Z,5.50
2018-08-22T11:40:24.237Z,5.65
2018-08-22T11:42:52.591Z,5.17
2018-08-22T11:45:20.906Z,5.97
2018-08-22T11:47:49.264Z,6.08
2018-08-22T11:50:17.589Z,5.50
2018-08-22T11:52:45.957Z,6.28
2018-08-22T11:55:14.314Z,5.35
2018-08-22T11:57:42.661Z,6.03
2018-08-22T12:00:11.011Z,5.42
2018-08-22T12:02:39.354Z,4.58
2018-08-22T12:05:07.678Z,5.42
2018-08-22T12:07:36.015Z,5.20
2018-08-22T12:10:04.389Z,5.40
2018-08-22T12:12:32.738Z,5.25
2018-08-22T12:15:01.055Z,5.20
2018-08-22T12:17:29.401Z,5.87
2018-08-22T12:19:57.817Z,5.20
2018-08-22T12:22:26.231Z,5.12
2018-08-22T12:24:54.553Z,4.78
2018-08-22T12:27:23.098Z,4.95
2018-08-22T12:29:51.410Z,5.25
2018-08-22T12:32:19.770Z,4.80
2018-08-22T12:34:48.130Z,5.08
2018-08-22T12:37:16.693Z,4.67
2018-08-22T12:39:45.026Z,4.40
2018-08-22T12:42:13.444Z,4.75
2018-08-22T12:44:41.783Z,5.22
2018-08-22T12:47:10.125Z,4.33
2018-08-22T12:49:38.438Z,4.10
2018-08-22T12:52:06.781Z,3.90
2018-08-22T12:54:35.110Z,3.75
2018-08-22T12:57:03.456Z,3.80
2018-08-22T12:59:31.816Z,3.42
2018-08-22T13:02:00.149Z,3.90
2018-08-22T13:04:28.485Z,3.85
2018-08-22T13:06:56.878Z,3.80
2018-08-22T13:09:25.206Z,3.42
2018-08-22T13:11:53.526Z,3.15
2018-08-22T13:14:21.861Z,3.22
2018-08-22T13:16:50.201Z,2.70
2018-08-22T13:19:18.550Z,3.50
2018-08-22T13:21:46.901Z,3.70
2018-08-22T13:24:15.274Z,3.27
2018-08-22T13:26:43.634Z,3.98
2018-08-22T13:29:12.220Z,4.70
2018-08-22T13:31:40.521Z,4.37
2018-08-22T13:34:08.860Z,4.20
2018-08-22T13:36:37.181Z,5.03
2018-08-22T13:39:07.772Z,4.55
2018-08-22T13:41:36.026Z,5.37
2018-08-22T13:44:04.390Z,4.53
2018-08-22T13:46:32.749Z,4.85
2018-08-22T13:49:01.178Z,5.87
2018-08-22T13:51:29.499Z,4.65
2018-08-22T13:53:57.819Z,5.72
2018-08-22T13:56:26.252Z,4.78
2018-08-22T13:58:54.623Z,4.75
2018-08-22T14:01:23.029Z,4.90
2018-08-22T14:03:51.382Z,4.72
2018-08-22T14:06:19.685Z,5.33
2018-08-22T14:08:48.026Z,5.17
2018-08-22T14:11:16.367Z,6.15
2018-08-22T14:13:44.730Z,5.20
2018-08-22T14:16:13.065Z,5.22
2018-08-22T14:18:41.405Z,5.20
2018-08-22T14:21:09.758Z,4.97
2018-08-22T14:23:38.104Z,5.00
2018-08-22T14:26:06.670Z,4.60
2018-08-22T14:28:35.029Z,5.00
2018-08-22T14:31:03.369Z,4.80
2018-08-22T14:33:31.709Z,5.57
2018-08-22T14:36:00.039Z,5.20
2018-08-22T14:38:28.370Z,5.47
2018-08-22T14:40:56.713Z,5.30
2018-08-22T14:43:25.708Z,5.10
2018-08-22T14:45:54.036Z,5.20
2018-08-22T14:48:22.418Z,5.40
2018-08-22T14:50:50.734Z,5.40
2018-08-22T14:53:19.068Z,5.03
2018-08-22T14:55:47.540Z,5.50
2018-08-22T14:58:16.976Z,6.30
2018-08-22T15:00:45.306Z,5.50
2018-08-22T15:03:14.020Z,4.93
2018-08-22T15:05:41.981Z,5.37
2018-08-22T15:08:10.308Z,6.13
2018-08-22T15:10:38.666Z,5.80
2018-08-22T15:13:07.072Z,5.47
2018-08-22T15:15:35.350Z,5.73
2018-08-22T15:18:03.688Z,5.23
2018-08-22T15:20:32.034Z,5.73
2018-08-22T15:23:00.386Z,5.93
2018-08-22T15:25:28.706Z,5.37
2018-08-22T15:27:57.058Z,5.63
2018-08-22T15:30:25.377Z,5.23
2018-08-22T15:32:53.750Z,5.27
2018-08-22T15:35:22.977Z,5.23
2018-08-22T15:37:51.418Z,5.77
2018-08-22T15:40:19.740Z,5.93
2018-08-22T15:42:48.089Z,5.37
2018-08-22T15:45:16.499Z,5.80
2018-08-22T15:47:44.963Z,5.47
2018-08-22T15:50:13.185Z,5.87
2018-08-22T15:52:41.522Z,6.27
2018-08-22T15:55:15.534Z,6.03
2018-08-22T15:58:03.089Z,5.77
2018-08-22T16:00:44.356Z,5.67
2018-08-22T16:03:12.774Z,5.70
2018-08-22T16:05:41.919Z,5.80
2018-08-22T16:08:10.730Z,6.10
2018-08-22T16:10:39.076Z,5.23
2018-08-22T16:13:18.851Z,5.63
2018-08-22T16:15:49.381Z,5.50
2018-08-22T16:18:17.798Z,6.53
2018-08-22T16:20:53.318Z,5.60
2018-08-22T16:23:23.528Z,6.00
2018-08-22T16:25:52.811Z,5.50
2018-08-22T16:28:21.659Z,5.50
2018-08-22T16:30:57.042Z,5.80
2018-08-22T16:33:21.105Z,5.80
2018-08-22T16:35:49.421Z,6.07
2018-08-22T16:38:17.793Z,6.20
2018-08-22T16:40:53.109Z,8.43
2018-08-22T16:43:38.178Z,5.97
2018-08-22T16:46:11.076Z,6.27
2018-08-22T16:48:40.279Z,6.23
2018-08-22T16:51:08.624Z,7.70
2018-08-22T16:53:37.084Z,6.23
2018-08-22T16:56:05.539Z,6.53
2018-08-22T16:58:33.925Z,5.97
2018-08-22T17:01:02.222Z,6.13
2018-08-22T17:03:30.559Z,6.00
2018-08-22T17:06:04.359Z,6.40
2018-08-22T17:08:32.738Z,6.63
2018-08-22T17:11:02.329Z,5.77
2018-08-22T17:13:41.368Z,5.97
2018-08-22T17:16:09.709Z,6.37
2018-08-22T17:18:38.075Z,6.43
2018-08-22T17:21:06.494Z,6.10
2018-08-22T17:23:34.825Z,5.97
2018-08-22T17:26:03.219Z,6.17
2018-08-22T17:28:38.373Z,7.70
2018-08-22T17:31:06.982Z,6.37
2018-08-22T17:33:40.757Z,6.60
2018-08-22T17:36:10.289Z,6.17
2018-08-22T17:38:39.090Z,6.77
2018-08-22T17:41:07.440Z,6.10
2018-08-22T17:43:54.678Z,6.40
2018-08-22T17:46:24.782Z,6.07
2018-08-22T17:48:53.427Z,6.20
2018-08-22T17:51:21.865Z,6.10
2018-08-22T17:53:50.220Z,6.23
2018-08-22T17:56:20.464Z,6.27
2018-08-22T17:58:49.335Z,6.70
2018-08-22T18:01:17.710Z,6.23
2018-08-22T18:03:46.030Z,6.07
2018-08-22T18:06:14.372Z,7.03
2018-08-22T18:08:42.754Z,6.77
2018-08-22T18:11:11.086Z,6.70
2018-08-22T18:13:39.426Z,7.17
2018-08-22T18:16:07.747Z,8.37
2018-08-22T18:18:36.114Z,7.50
2018-08-22T18:21:04.478Z,6.97
2018-08-22T18:23:32.925Z,7.00
2018-08-22T18:26:02.633Z,6.90
2018-08-22T18:28:31.014Z,7.17
2018-08-22T18:30:59.328Z,7.80
2018-08-22T18:33:27.695Z,6.60
2018-08-22T18:35:56.049Z,7.03
2018-08-22T18:38:24.390Z,7.63
2018-08-22T18:41:04.055Z,7.60
2018-08-22T18:43:32.400Z,7.87
2018-08-22T18:46:07.800Z,7.70
2018-08-22T18:48:36.472Z,7.07
2018-08-22T18:51:05.140Z,7.80
2018-08-22T18:53:33.558Z,7.33
2018-08-22T18:56:12.895Z,7.17
2018-08-22T18:58:41.343Z,6.93
2018-08-22T19:01:09.687Z,6.73
2018-08-22T19:03:38.046Z,7.27
2018-08-22T19:06:06.773Z,6.90
2018-08-22T19:08:35.783Z,6.80
2018-08-22T19:11:04.151Z,6.97
2018-08-22T19:13:32.478Z,6.63
2018-08-22T19:16:03.271Z,8.13
2018-08-22T19:18:31.656Z,8.70
2018-08-22T19:21:01.949Z,7.43
2018-08-22T19:23:30.561Z,8.40
2018-08-22T19:25:59.844Z,8.57
2018-08-22T19:28:28.206Z,8.23
2018-08-22T19:30:56.550Z,8.43
2018-08-22T19:33:26.033Z,8.13
2018-08-22T19:35:54.572Z,8.40
2018-08-22T19:38:25.160Z,9.10
2018-08-22T19:40:53.689Z,8.67
2018-08-22T19:43:22.035Z,9.00
2018-08-22T19:45:50.354Z,8.40
2018-08-22T19:48:18.702Z,9.73
2018-08-22T19:50:47.039Z,8.97
2018-08-22T19:53:15.383Z,8.57
2018-08-22T19:55:43.732Z,11.00
2018-08-22T19:58:14.460Z,9.33
2018-08-22T20:00:42.798Z,9.83
2018-08-22T20:03:12.063Z,8.07
2018-08-22T20:05:50.800Z,8.63
2018-08-22T20:08:22.482Z,8.07
2018-08-22T20:10:50.839Z,7.73
2018-08-22T20:13:19.194Z,8.00
2018-08-22T20:15:47.567Z,8.53
2018-08-22T20:18:17.866Z,8.63
2018-08-22T20:20:46.360Z,8.30
2018-08-22T20:23:14.776Z,8.47
2018-08-22T20:25:43.134Z,7.93
2018-08-22T20:28:11.467Z,8.73
2018-08-22T20:30:39.807Z,7.97
2018-08-22T20:33:09.508Z,7.97
2018-08-22T20:35:39.233Z,8.10
2018-08-22T20:38:08.724Z,8.90
2018-08-22T20:40:37.106Z,8.30
2018-08-22T20:43:05.775Z,8.30
2018-08-22T20:45:35.410Z,9.63
2018-08-22T20:48:10.847Z,8.07
2018-08-22T20:50:40.566Z,8.40
2018-08-22T20:53:10.246Z,8.53
2018-08-22T20:55:38.644Z,7.87
2018-08-22T20:58:07.028Z,7.67
2018-08-22T21:00:36.685Z,8.33
2018-08-22T21:03:05.067Z,7.73
2018-08-22T21:05:33.374Z,7.87
2018-08-22T21:08:01.697Z,8.60
2018-08-22T21:10:30.030Z,8.83
2018-08-22T21:12:58.366Z,9.60
2018-08-22T21:15:26.702Z,8.57
2018-08-22T21:17:55.035Z,9.23
2018-08-22T21:20:26.126Z,8.57
2018-08-22T21:22:55.921Z,8.80
2018-08-22T21:25:25.061Z,9.83
2018-08-22T21:27:53.792Z,9.27
2018-08-22T21:30:22.170Z,8.93
2018-08-22T21:32:50.566Z,8.70
2018-08-22T21:35:25.771Z,9.20
2018-08-22T21:37:57.872Z,8.37
2018-08-22T21:40:26.214Z,9.17
2018-08-22T21:42:54.524Z,8.23
2018-08-22T21:45:22.853Z,9.30
2018-08-22T21:48:03.888Z,8.03
2018-08-22T21:50:32.940Z,9.30
2018-08-22T21:53:02.457Z,9.10
2018-08-22T21:55:40.895Z,7.97
2018-08-22T21:58:09.913Z,8.23
2018-08-22T22:00:38.588Z,8.43
2018-08-22T22:03:07.478Z,8.10
2018-08-22T22:05:42.401Z,8.27
2018-08-22T22:08:10.754Z,8.43
2018-08-22T22:10:39.245Z,7.60
2018-08-22T22:13:08.141Z,8.27
2018-08-22T22:15:43.694Z,9.77
2018-08-22T22:18:13.033Z,9.77
2018-08-22T22:20:42.501Z,8.90
2018-08-22T22:23:11.860Z,8.90
2018-08-22T22:25:41.312Z,9.13
2018-08-22T22:28:10.426Z,10.50
2018-08-22T22:30:39.465Z,9.77
2018-08-22T22:33:08.646Z,9.33
2018-08-22T22:35:38.993Z,8.43
2018-08-22T22:38:12.370Z,8.30
2018-08-22T22:40:41.300Z,8.50
2018-08-22T22:43:12.580Z,9.63
2018-08-22T22:45:40.925Z,8.60
2018-08-22T22:48:09.264Z,9.43
2018-08-22T22:50:37.680Z,8.93
2018-08-22T22:53:06.335Z,8.77
2018-08-22T22:55:34.712Z,9.03
2018-08-22T22:58:03.417Z,9.37
2018-08-22T23:00:31.765Z,9.50
2018-08-22T23:03:05.257Z,8.60
2018-08-22T23:05:33.605Z,9.07
2018-08-22T23:08:02.250Z,9.60
2018-08-22T23:10:30.668Z,8.93
2018-08-22T23:12:58.990Z,8.33
2018-08-22T23:15:29.437Z,9.80
2018-08-22T23:18:01.902Z,8.93
2018-08-22T23:20:36.646Z,9.10
2018-08-22T23:23:38.386Z,10.47
2018-08-22T23:26:13.017Z,9.10
2018-08-22T23:28:42.106Z,9.20
2018-08-22T23:31:10.564Z,9.03
2018-08-22T23:33:38.901Z,9.60
2018-08-22T23:36:07.242Z,9.17
2018-08-22T23:38:37.257Z,10.20
2018-08-22T23:41:05.593Z,8.90
2018-08-22T23:43:39.854Z,9.67
2018-08-22T23:46:09.442Z,8.40
2018-08-22T23:48:38.056Z,8.80
2018-08-22T23:51:08.411Z,8.90
2018-08-22T23:53:41.737Z,9.20
2018-08-22T23:56:26.348Z,8.20
2018-08-22T23:58:55.205Z,9.77
